createdAt,value
2023-05-08T00:01:04.530Z,1.80
2023-05-08T00:03:33.251Z,1.80
2023-05-08T00:06:05.853Z,1.70
2023-05-08T00:08:34.224Z,2.20
2023-05-08T00:11:02.819Z,2.03
2023-05-08T00:13:31.134Z,1.60
2023-05-08T00:15:59.463Z,1.70
2023-05-08T00:18:27.893Z,1.90
2023-05-08T00:20:56.343Z,1.80
2023-05-08T00:23:26.157Z,1.50
2023-05-08T00:25:54.426Z,1.60
2023-05-08T00:28:22.813Z,1.60
2023-05-08T00:30:51.046Z,1.40
2023-05-08T00:33:19.472Z,1.57
2023-05-08T00:35:48.006Z,1.70
2023-05-08T00:38:16.289Z,1.90
2023-05-08T00:40:45.947Z,1.77
2023-05-08T00:43:14.274Z,1.73
2023-05-08T00:45:43.169Z,1.60
2023-05-08T00:48:11.459Z,1.67
2023-05-08T00:50:39.904Z,1.70
2023-05-08T00:53:08.408Z,1.80
2023-05-08T00:55:36.821Z,1.65
2023-05-08T00:58:08.130Z,1.80
2023-05-08T01:00:36.700Z,1.65
2023-05-08T01:03:05.997Z,1.70
2023-05-08T01:05:34.518Z,1.80
2023-05-08T01:08:02.859Z,1.90
2023-05-08T01:10:42.225Z,1.70
2023-05-08T01:13:20.186Z,2.03
2023-05-08T01:15:55.896Z,1.67
2023-05-08T01:18:29.645Z,1.80
2023-05-08T01:21:04.499Z,1.63
2023-05-08T01:24:12.659Z,1.53
2023-05-08T01:27:01.009Z,1.50
2023-05-08T01:30:02.486Z,1.70
2023-05-08T01:32:36.899Z,1.93
2023-05-08T01:35:18.353Z,1.50
2023-05-08T01:37:54.171Z,1.80
2023-05-08T01:40:33.613Z,1.60
2023-05-08T01:43:14.145Z,1.70
2023-05-08T01:45:49.543Z,1.70
2023-05-08T01:48:23.944Z,1.60
2023-05-08T01:51:01.797Z,1.60
2023-05-08T01:53:33.241Z,1.50
2023-05-08T01:56:06.941Z,1.50
2023-05-08T01:58:36.975Z,1.53
2023-05-08T02:01:06.030Z,1.40
2023-05-08T02:03:38.986Z,1.50
2023-05-08T02:06:10.580Z,1.40
2023-05-08T02:08:39.112Z,1.70
2023-05-08T02:11:10.516Z,1.42
2023-05-08T02:13:40.186Z,1.60
2023-05-08T02:16:11.154Z,1.53
2023-05-08T02:18:44.071Z,1.60
2023-05-08T02:21:14.140Z,1.60
2023-05-08T02:23:44.218Z,1.63
2023-05-08T02:26:15.408Z,1.37
2023-05-08T02:28:44.048Z,1.50
2023-05-08T02:31:13.379Z,1.40
2023-05-08T02:33:45.236Z,1.40
2023-05-08T02:36:20.582Z,1.60
2023-05-08T02:38:53.797Z,1.70
2023-05-08T02:41:25.310Z,1.80
2023-05-08T02:43:53.662Z,1.43
2023-05-08T02:46:28.897Z,1.73
2023-05-08T02:49:01.966Z,1.50
2023-05-08T02:51:39.212Z,1.77
2023-05-08T02:54:11.704Z,1.70
2023-05-08T02:56:48.373Z,1.80
2023-05-08T02:59:20.134Z,1.90
2023-05-08T03:01:53.679Z,1.60
2023-05-08T03:04:30.398Z,1.60
2023-05-08T03:06:59.424Z,1.50
2023-05-08T03:09:33.156Z,1.50
2023-05-08T03:12:05.901Z,1.50
2023-05-08T03:14:40.221Z,1.60
2023-05-08T03:17:14.244Z,1.60
2023-05-08T03:19:48.227Z,1.60
2023-05-08T03:22:17.696Z,1.50
2023-05-08T03:24:47.949Z,1.50
2023-05-08T03:27:17.228Z,1.40
2023-05-08T03:29:46.951Z,1.70
2023-05-08T03:32:16.679Z,1.70
2023-05-08T03:34:47.106Z,1.80
2023-05-08T03:37:15.534Z,1.43
2023-05-08T03:39:44.103Z,1.60
2023-05-08T03:42:21.191Z,1.40
2023-05-08T03:44:51.394Z,1.90
2023-05-08T03:47:20.978Z,1.53
2023-05-08T03:49:51.530Z,1.80
2023-05-08T03:52:19.872Z,1.90
2023-05-08T03:54:48.268Z,1.50
2023-05-08T03:57:16.603Z,1.90
2023-05-08T03:59:52.372Z,1.60
2023-05-08T04:02:30.327Z,1.60
2023-05-08T04:05:07.087Z,1.53
2023-05-08T04:07:39.364Z,1.47
2023-05-08T04:10:13.520Z,2.00
2023-05-08T04:12:48.052Z,1.50
2023-05-08T04:15:22.818Z,1.80
2023-05-08T04:17:54.770Z,1.70
2023-05-08T04:20:28.081Z,1.70
2023-05-08T04:22:57.057Z,1.70
2023-05-08T04:25:26.353Z,1.70
2023-05-08T04:27:56.185Z,2.00
2023-05-08T04:30:25.153Z,1.87
2023-05-08T04:32:54.280Z,1.90
2023-05-08T04:35:24.309Z,1.83
2023-05-08T04:37:52.749Z,1.70
2023-05-08T04:40:21.332Z,1.80
2023-05-08T04:42:49.733Z,1.90
2023-05-08T04:45:18.672Z,1.70
2023-05-08T04:47:47.234Z,1.70
2023-05-08T04:50:15.648Z,1.70
2023-05-08T04:52:45.602Z,2.10
2023-05-08T04:55:14.183Z,2.00
2023-05-08T04:57:42.670Z,2.20
2023-05-08T05:00:12.294Z,2.13
2023-05-08T05:02:40.673Z,2.20
2023-05-08T05:05:09.992Z,1.97
2023-05-08T05:07:38.379Z,2.00
2023-05-08T05:10:09.143Z,2.00
2023-05-08T05:12:37.441Z,2.00
2023-05-08T05:15:06.655Z,1.90
2023-05-08T05:17:35.362Z,2.10
2023-05-08T05:20:06.408Z,2.20
2023-05-08T05:22:34.802Z,2.30
2023-05-08T05:25:03.049Z,2.30
2023-05-08T05:27:32.822Z,2.33
2023-05-08T05:30:01.210Z,2.43
2023-05-08T05:32:29.522Z,2.07
2023-05-08T05:34:57.851Z,2.40
2023-05-08T05:37:26.129Z,2.23
2023-05-08T05:39:54.459Z,2.40
2023-05-08T05:42:23.351Z,2.20
2023-05-08T05:44:53.055Z,2.17
2023-05-08T05:47:21.338Z,2.33
2023-05-08T05:49:50.008Z,2.50
2023-05-08T05:52:18.289Z,2.43
2023-05-08T05:54:46.763Z,2.43
2023-05-08T05:57:15.101Z,2.60
2023-05-08T05:59:43.576Z,2.70
2023-05-08T06:02:18.661Z,2.60
2023-05-08T06:04:47.451Z,2.47
2023-05-08T06:07:15.684Z,2.70
2023-05-08T06:09:44.014Z,2.40
2023-05-08T06:12:12.360Z,2.30
2023-05-08T06:14:40.640Z,2.90
2023-05-08T06:17:08.997Z,2.80
2023-05-08T06:19:38.643Z,3.17
2023-05-08T06:22:06.982Z,3.50
2023-05-08T06:24:35.868Z,3.22
2023-05-08T06:27:04.158Z,2.95
2023-05-08T06:29:32.421Z,2.85
2023-05-08T06:32:01.014Z,2.72
2023-05-08T06:34:29.325Z,2.60
2023-05-08T06:36:59.097Z,3.08
2023-05-08T06:39:27.463Z,2.97
2023-05-08T06:41:55.887Z,3.10
2023-05-08T06:44:24.121Z,3.00
2023-05-08T06:46:52.408Z,3.00
2023-05-08T06:49:21.292Z,3.20
2023-05-08T06:51:49.570Z,3.42
2023-05-08T06:54:19.241Z,3.22
2023-05-08T06:56:47.638Z,2.92
2023-05-08T06:59:15.902Z,3.35
2023-05-08T07:01:44.250Z,3.42
2023-05-08T07:04:12.690Z,3.00
2023-05-08T07:06:41.076Z,3.55
2023-05-08T07:09:09.636Z,3.00
2023-05-08T07:11:39.621Z,2.83
2023-05-08T07:14:07.871Z,3.38
2023-05-08T07:16:36.448Z,3.30
2023-05-08T07:19:04.824Z,3.08
2023-05-08T07:21:33.367Z,3.33
2023-05-08T07:24:01.685Z,3.92
2023-05-08T07:26:29.966Z,3.78
2023-05-08T07:28:59.894Z,3.50
2023-05-08T07:31:28.327Z,3.72
2023-05-08T07:33:56.655Z,3.63
2023-05-08T07:36:24.924Z,3.75
2023-05-08T07:38:53.228Z,4.10
2023-05-08T07:41:21.660Z,3.50
2023-05-08T07:43:50.075Z,3.28
2023-05-08T07:46:20.561Z,2.88
2023-05-08T07:48:49.007Z,2.67
2023-05-08T07:51:17.380Z,2.70
2023-05-08T07:53:45.733Z,2.58
2023-05-08T07:56:14.058Z,2.60
2023-05-08T07:58:42.767Z,2.40
2023-05-08T08:01:11.326Z,2.40
2023-05-08T08:03:41.084Z,2.75
2023-05-08T08:06:09.525Z,2.40
2023-05-08T08:08:37.750Z,2.60
2023-05-08T08:11:06.273Z,2.90
2023-05-08T08:13:34.661Z,2.60
2023-05-08T08:16:04.325Z,2.78
2023-05-08T08:18:35.895Z,2.85
2023-05-08T08:21:08.313Z,3.97
2023-05-08T08:23:36.576Z,4.13
2023-05-08T08:26:05.068Z,4.03
2023-05-08T08:28:33.403Z,4.07
2023-05-08T08:31:01.782Z,3.75
2023-05-08T08:33:30.323Z,3.65
2023-05-08T08:35:58.692Z,3.35
2023-05-08T08:38:28.425Z,3.10
2023-05-08T08:40:56.740Z,3.20
2023-05-08T08:43:25.107Z,3.50
2023-05-08T08:45:53.785Z,3.40
2023-05-08T08:48:25.798Z,3.10
2023-05-08T08:51:00.016Z,3.10
2023-05-08T08:53:36.431Z,3.17
2023-05-08T08:56:08.444Z,3.53
2023-05-08T08:58:40.000Z,3.25
2023-05-08T09:01:10.658Z,3.20
2023-05-08T09:03:39.200Z,3.75
2023-05-08T09:06:08.503Z,4.00
2023-05-08T09:08:39.690Z,5.25
2023-05-08T09:11:07.961Z,4.30
2023-05-08T09:13:36.464Z,4.35
2023-05-08T09:16:04.997Z,3.88
2023-05-08T09:18:33.450Z,3.78
2023-05-08T09:21:02.754Z,3.80
2023-05-08T09:23:31.103Z,3.80
2023-05-08T09:26:00.742Z,3.72
2023-05-08T09:28:28.986Z,3.90
2023-05-08T09:30:58.886Z,3.75
2023-05-08T09:33:28.901Z,3.83
2023-05-08T09:35:57.793Z,4.15
2023-05-08T09:38:37.247Z,4.15
2023-05-08T09:41:11.353Z,4.43
2023-05-08T09:43:40.140Z,5.28
2023-05-08T09:46:25.861Z,5.07
2023-05-08T09:48:55.622Z,4.32
2023-05-08T09:51:24.754Z,4.75
2023-05-08T09:53:54.239Z,4.80
2023-05-08T09:56:40.193Z,4.28
2023-05-08T09:59:24.442Z,4.43
2023-05-08T10:01:52.795Z,3.90
2023-05-08T10:04:33.613Z,3.95
2023-05-08T10:07:02.361Z,4.07
2023-05-08T10:09:42.609Z,3.88
2023-05-08T10:12:22.492Z,4.30
2023-05-08T10:14:50.859Z,3.70
2023-05-08T10:17:27.553Z,4.43
2023-05-08T10:20:01.240Z,3.67
2023-05-08T10:22:31.102Z,3.63
2023-05-08T10:25:02.306Z,3.90
2023-05-08T10:27:42.559Z,3.53
2023-05-08T10:30:14.831Z,3.63
2023-05-08T10:32:46.460Z,3.55
2023-05-08T10:35:14.824Z,3.83
2023-05-08T10:37:43.439Z,3.70
2023-05-08T10:40:13.056Z,3.83
2023-05-08T10:42:43.655Z,4.18
2023-05-08T10:45:13.456Z,3.55
2023-05-08T10:47:52.434Z,3.22
2023-05-08T10:50:29.525Z,3.38
2023-05-08T10:53:06.808Z,3.08
2023-05-08T10:55:38.613Z,3.30
2023-05-08T10:58:12.732Z,3.08
2023-05-08T11:01:15.102Z,2.65
2023-05-08T11:03:51.003Z,2.70
2023-05-08T11:06:39.873Z,3.13
2023-05-08T11:09:08.559Z,3.30
2023-05-08T11:11:40.272Z,3.38
2023-05-08T11:14:16.435Z,3.13
2023-05-08T11:17:08.362Z,3.25
2023-05-08T11:19:38.080Z,3.25
2023-05-08T11:22:33.479Z,3.05
2023-05-08T11:25:07.139Z,2.90
2023-05-08T11:27:41.164Z,2.83
2023-05-08T11:30:37.749Z,3.08
2023-05-08T11:33:16.533Z,2.78
2023-05-08T11:35:51.045Z,2.38
2023-05-08T11:38:21.567Z,2.33
2023-05-08T11:40:55.726Z,2.30
2023-05-08T11:44:14.929Z,2.22
2023-05-08T11:46:49.806Z,2.10
2023-05-08T11:49:22.632Z,1.92
2023-05-08T11:51:55.595Z,1.85
2023-05-08T11:54:24.250Z,1.83
2023-05-08T11:56:54.921Z,1.70
2023-05-08T11:59:23.308Z,2.08
2023-05-08T12:04:24.889Z,1.90
2023-05-08T12:06:58.976Z,1.80
2023-05-08T12:09:27.716Z,1.80
2023-05-08T12:11:59.231Z,1.88
2023-05-08T12:14:27.621Z,1.60
2023-05-08T12:16:57.400Z,1.80
2023-05-08T12:19:25.735Z,1.98
2023-05-08T12:21:53.959Z,2.35
2023-05-08T12:24:24.439Z,2.28
2023-05-08T12:26:56.792Z,2.20
2023-05-08T12:29:27.387Z,2.00
2023-05-08T12:31:57.484Z,2.10
2023-05-08T12:34:26.053Z,2.25
2023-05-08T12:37:04.260Z,2.58
2023-05-08T12:39:37.756Z,2.53
2023-05-08T12:42:06.446Z,2.15
2023-05-08T12:44:34.652Z,2.03
2023-05-08T12:47:06.809Z,2.60
2023-05-08T12:49:35.128Z,2.40
2023-05-08T12:52:05.067Z,2.20
2023-05-08T12:54:34.637Z,2.35
2023-05-08T12:57:03.043Z,2.40
2023-05-08T12:59:32.948Z,2.40
2023-05-08T13:02:01.342Z,2.28
2023-05-08T13:04:31.273Z,2.17
2023-05-08T13:06:59.817Z,1.70
2023-05-08T13:09:28.115Z,1.77
2023-05-08T13:11:56.470Z,2.00
2023-05-08T13:14:24.786Z,1.88
2023-05-08T13:16:53.214Z,1.77
2023-05-08T13:19:21.715Z,1.60
2023-05-08T13:21:52.926Z,1.70
2023-05-08T13:24:21.255Z,1.92
2023-05-08T13:26:49.512Z,1.80
2023-05-08T13:29:18.067Z,1.58
2023-05-08T13:31:46.378Z,1.80
2023-05-08T13:34:15.165Z,1.70
2023-05-08T13:36:43.467Z,1.70
2023-05-08T13:39:13.116Z,1.65
2023-05-08T13:41:41.349Z,1.58
2023-05-08T13:44:09.574Z,1.75
2023-05-08T13:46:37.923Z,1.85
2023-05-08T13:49:06.240Z,1.73
2023-05-08T13:51:34.499Z,1.75
2023-05-08T13:54:02.883Z,1.60
2023-05-08T13:56:32.622Z,1.55
2023-05-08T13:59:00.937Z,1.67
2023-05-08T14:01:29.213Z,2.03
2023-05-08T14:03:57.645Z,1.90
2023-05-08T14:06:25.919Z,1.90
2023-05-08T14:08:55.530Z,1.83
2023-05-08T14:11:25.630Z,1.85
2023-05-08T14:13:55.390Z,1.80
2023-05-08T14:16:23.810Z,1.83
2023-05-08T14:18:52.200Z,2.17
2023-05-08T14:21:20.437Z,2.20
2023-05-08T14:23:48.715Z,2.38
2023-05-08T14:26:17.114Z,2.38
2023-05-08T14:28:45.377Z,2.05
2023-05-08T14:31:15.100Z,1.77
2023-05-08T14:33:43.443Z,1.85
2023-05-08T14:36:11.848Z,1.77
2023-05-08T14:38:40.129Z,1.80
2023-05-08T14:41:08.424Z,1.70
2023-05-08T14:43:36.833Z,1.83
2023-05-08T14:46:05.252Z,1.63
2023-05-08T14:48:34.956Z,1.52
2023-05-08T14:51:03.253Z,1.83
2023-05-08T14:53:31.667Z,1.80
2023-05-08T14:56:01.037Z,1.80
2023-05-08T14:58:29.636Z,1.80
2023-05-08T15:00:57.990Z,1.85
2023-05-08T15:03:26.489Z,2.08
2023-05-08T15:05:56.602Z,1.95
2023-05-08T15:08:24.896Z,1.58
2023-05-08T15:10:53.268Z,1.73
2023-05-08T15:13:21.553Z,1.77
2023-05-08T15:15:49.958Z,1.70
2023-05-08T15:18:18.238Z,2.00
2023-05-08T15:20:46.495Z,1.77
2023-05-08T15:23:16.514Z,1.80
2023-05-08T15:25:44.873Z,1.80
2023-05-08T15:28:13.172Z,1.85
2023-05-08T15:30:41.501Z,2.05
2023-05-08T15:33:10.038Z,2.00
2023-05-08T15:35:38.266Z,2.28
2023-05-08T15:38:07.683Z,1.90
2023-05-08T15:40:37.373Z,2.30
2023-05-08T15:43:05.636Z,2.17
2023-05-08T15:45:34.028Z,2.10
2023-05-08T15:48:02.505Z,2.40
2023-05-08T15:50:30.911Z,2.38
2023-05-08T15:52:59.252Z,2.70
2023-05-08T15:55:27.811Z,2.65
2023-05-08T15:57:57.500Z,2.63
2023-05-08T16:00:30.249Z,2.97
2023-05-08T16:03:09.949Z,2.70
2023-05-08T16:05:39.603Z,2.80
2023-05-08T16:08:08.441Z,2.70
2023-05-08T16:10:36.632Z,2.83
2023-05-08T16:13:06.393Z,2.75
2023-05-08T16:15:34.798Z,2.85
2023-05-08T16:18:03.286Z,2.80
2023-05-08T16:20:33.435Z,2.78
2023-05-08T16:23:03.495Z,2.90
2023-05-08T16:25:31.907Z,2.90
2023-05-08T16:28:00.220Z,2.95
2023-05-08T16:30:30.998Z,3.22
2023-05-08T16:32:59.395Z,3.28
2023-05-08T16:35:29.551Z,3.28
2023-05-08T16:37:58.037Z,3.50
2023-05-08T16:40:26.669Z,3.42
2023-05-08T16:42:55.063Z,3.40
2023-05-08T16:45:23.697Z,4.13
2023-05-08T16:47:53.669Z,4.32
2023-05-08T16:50:22.177Z,3.80
2023-05-08T16:52:50.624Z,4.38
2023-05-08T16:55:27.988Z,4.68
2023-05-08T16:57:56.583Z,4.88
2023-05-08T17:00:25.773Z,4.68
2023-05-08T17:02:55.497Z,4.93
2023-05-08T17:05:24.245Z,4.60
2023-05-08T17:07:52.828Z,4.30
2023-05-08T17:10:21.416Z,5.80
2023-05-08T17:12:50.905Z,6.65
2023-05-08T17:15:20.893Z,6.68
2023-05-08T17:17:50.588Z,7.10
2023-05-08T17:20:20.595Z,6.50
2023-05-08T17:22:48.903Z,5.78
2023-05-08T17:25:17.742Z,6.22
2023-05-08T17:27:46.183Z,6.50
2023-05-08T17:30:17.119Z,6.25
2023-05-08T17:32:46.349Z,6.20
2023-05-08T17:35:14.786Z,6.15
2023-05-08T17:37:44.633Z,6.35
2023-05-08T17:40:13.704Z,6.43
2023-05-08T17:42:42.252Z,6.38
2023-05-08T17:45:10.981Z,6.28
2023-05-08T17:47:40.350Z,6.35
2023-05-08T17:50:09.528Z,6.22
2023-05-08T17:52:37.791Z,6.43
2023-05-08T17:55:08.827Z,6.25
2023-05-08T17:57:37.293Z,6.53
2023-05-08T18:00:07.379Z,6.47
2023-05-08T18:02:35.797Z,7.00
2023-05-08T18:05:04.291Z,6.93
2023-05-08T18:07:33.079Z,6.90
2023-05-08T18:10:01.832Z,6.30
2023-05-08T18:12:33.031Z,6.55
2023-05-08T18:15:03.635Z,6.53
2023-05-08T18:17:31.923Z,6.78
2023-05-08T18:20:00.247Z,6.43
2023-05-08T18:22:28.519Z,6.25
2023-05-08T18:24:57.152Z,7.00
2023-05-08T18:27:26.403Z,6.63
2023-05-08T18:29:56.431Z,6.60
2023-05-08T18:32:24.727Z,6.13
2023-05-08T18:34:53.011Z,6.35
2023-05-08T18:37:21.345Z,6.22
2023-05-08T18:39:49.789Z,6.20
2023-05-08T18:42:18.256Z,6.60
2023-05-08T18:44:46.613Z,5.70
2023-05-08T18:47:16.427Z,6.32
2023-05-08T18:49:44.867Z,6.57
2023-05-08T18:52:14.571Z,6.45
2023-05-08T18:54:42.836Z,6.63
2023-05-08T18:57:11.218Z,6.82
2023-05-08T18:59:39.482Z,6.30
2023-05-08T19:02:07.781Z,6.82
2023-05-08T19:04:37.574Z,6.65
2023-05-08T19:07:05.822Z,7.05
2023-05-08T19:09:34.156Z,7.05
2023-05-08T19:12:02.478Z,6.72
2023-05-08T19:14:30.827Z,6.60
2023-05-08T19:16:59.083Z,6.95
2023-05-08T19:19:27.651Z,6.72
2023-05-08T19:21:57.631Z,5.95
2023-05-08T19:24:29.859Z,6.72
2023-05-08T19:26:59.120Z,6.15
2023-05-08T19:29:27.622Z,6.00
2023-05-08T19:31:56.768Z,6.43
2023-05-08T19:34:25.220Z,6.35
2023-05-08T19:36:53.563Z,6.25
2023-05-08T19:39:23.269Z,6.10
2023-05-08T19:41:51.640Z,5.65
2023-05-08T19:44:20.037Z,5.68
2023-05-08T19:46:48.262Z,5.63
2023-05-08T19:49:17.389Z,5.30
2023-05-08T19:51:48.591Z,5.55
2023-05-08T19:54:17.055Z,5.32
2023-05-08T19:56:55.383Z,5.28
2023-05-08T19:59:28.793Z,5.00
2023-05-08T20:01:59.678Z,5.78
2023-05-08T20:04:29.039Z,5.10
2023-05-08T20:06:57.452Z,5.43
2023-05-08T20:09:25.732Z,4.78
2023-05-08T20:11:57.493Z,4.82
2023-05-08T20:14:26.112Z,5.05
2023-05-08T20:16:54.628Z,5.28
2023-05-08T20:19:22.923Z,5.53
2023-05-08T20:21:51.244Z,4.63
2023-05-08T20:24:19.724Z,4.97
2023-05-08T20:26:48.424Z,5.03
2023-05-08T20:29:18.084Z,5.10
2023-05-08T20:31:46.407Z,4.82
2023-05-08T20:34:14.825Z,5.00
2023-05-08T20:36:43.065Z,5.38
2023-05-08T20:39:11.434Z,4.95
2023-05-08T20:41:39.730Z,4.85
2023-05-08T20:44:08.012Z,4.80
2023-05-08T20:46:37.690Z,4.70
2023-05-08T20:49:06.441Z,4.93
2023-05-08T20:51:36.468Z,4.70
2023-05-08T20:54:04.879Z,4.80
2023-05-08T20:56:35.845Z,5.00
2023-05-08T20:59:04.166Z,5.32
2023-05-08T21:01:32.716Z,5.30
2023-05-08T21:04:02.721Z,5.30
2023-05-08T21:06:31.175Z,5.07
2023-05-08T21:08:59.682Z,4.60
2023-05-08T21:11:27.878Z,5.28
2023-05-08T21:13:56.091Z,4.60
2023-05-08T21:16:26.216Z,4.80
2023-05-08T21:18:58.007Z,4.80
2023-05-08T21:21:28.150Z,4.60
2023-05-08T21:23:56.493Z,4.68
2023-05-08T21:26:24.850Z,5.00
2023-05-08T21:28:53.839Z,4.50
2023-05-08T21:31:22.544Z,4.55
2023-05-08T21:33:52.064Z,4.32
2023-05-08T21:36:20.332Z,4.25
2023-05-08T21:38:50.130Z,4.35
2023-05-08T21:41:18.585Z,4.60
2023-05-08T21:43:47.569Z,4.35
2023-05-08T21:46:15.984Z,3.95
2023-05-08T21:48:44.213Z,4.22
2023-05-08T21:51:12.545Z,4.15
2023-05-08T21:53:40.903Z,4.05
2023-05-08T21:56:10.638Z,4.30
2023-05-08T21:58:38.932Z,4.05
2023-05-08T22:01:07.543Z,3.88
2023-05-08T22:03:36.134Z,3.72
2023-05-08T22:06:04.829Z,3.88
2023-05-08T22:08:33.263Z,4.00
2023-05-08T22:11:01.733Z,3.90
2023-05-08T22:13:31.668Z,3.58
2023-05-08T22:15:59.983Z,4.25
2023-05-08T22:18:28.393Z,4.10
2023-05-08T22:20:57.275Z,3.97
2023-05-08T22:23:25.609Z,4.00
2023-05-08T22:25:53.852Z,3.83
2023-05-08T22:28:22.118Z,3.85
2023-05-08T22:30:51.788Z,3.75
2023-05-08T22:33:20.060Z,4.00
2023-05-08T22:35:48.632Z,3.75
2023-05-08T22:38:16.933Z,3.75
2023-05-08T22:40:47.732Z,4.00
2023-05-08T22:43:16.135Z,3.88
2023-05-08T22:45:44.422Z,4.00
2023-05-08T22:48:14.150Z,3.80
2023-05-08T22:50:42.580Z,3.85
2023-05-08T22:53:10.912Z,3.72
2023-05-08T22:55:39.527Z,3.92
2023-05-08T22:58:07.956Z,3.97
2023-05-08T23:00:36.256Z,3.55
2023-05-08T23:03:04.741Z,3.47
2023-05-08T23:05:34.420Z,3.70
2023-05-08T23:08:03.042Z,3.50
2023-05-08T23:10:31.409Z,3.85
2023-05-08T23:12:59.686Z,3.47
2023-05-08T23:15:28.001Z,3.30
2023-05-08T23:17:56.368Z,3.45
2023-05-08T23:20:24.737Z,3.60
2023-05-08T23:22:54.402Z,3.55
2023-05-08T23:25:22.776Z,3.60
2023-05-08T23:27:51.142Z,4.10
2023-05-08T23:30:19.634Z,4.05
2023-05-08T23:32:47.919Z,3.85
2023-05-08T23:35:16.644Z,4.28
2023-05-08T23:37:45.155Z,4.15
2023-05-08T23:40:15.179Z,4.20
2023-05-08T23:42:43.525Z,4.55
2023-05-08T23:45:12.677Z,4.38
2023-05-08T23:47:41.670Z,4.47
2023-05-08T23:50:10.486Z,4.47
2023-05-08T23:52:38.822Z,4.45
2023-05-08T23:55:08.201Z,4.38
2023-05-08T23:57:37.974Z,4.00
